sensor_id;sensor_type;location;lat;lon;timestamp;P1;P2;P0
67714;PMS7003;54505;44.022;20.458;2023-03-14T00:03:53;198.00;167.50;97.25
67714;PMS7003;54505;44.022;20.458;2023-03-14T00:06:20;205.00;181.75;105.00
67714;PMS7003;54505;44.022;20.458;2023-03-14T00:08:46;203.25;174.00;102.75
67714;PMS7003;54505;44.022;20.458;2023-03-14T00:11:13;122.75;102.00;62.75
67714;PMS7003;54505;44.022;20.458;2023-03-14T00:13:39;120.50;107.00;61.25
67714;PMS7003;54505;44.022;20.458;2023-03-14T00:16:09;111.00;91.50;56.25
67714;PMS7003;54505;44.022;20.458;2023-03-14T00:18:35;102.25;80.00;48.50
67714;PMS7003;54505;44.022;20.458;2023-03-14T00:21:01;110.00;88.50;52.25
67714;PMS7003;54505;44.022;20.458;2023-03-14T00:23:27;91.75;73.25;48.75
67714;PMS7003;54505;44.022;20.458;2023-03-14T00:25:53;101.25;75.25;48.00
67714;PMS7003;54505;44.022;20.458;2023-03-14T00:28:19;99.50;73.00;46.75
67714;PMS7003;54505;44.022;20.458;2023-03-14T00:30:45;97.00;72.25;46.50
67714;PMS7003;54505;44.022;20.458;2023-03-14T00:33:10;99.00;73.75;45.50
67714;PMS7003;54505;44.022;20.458;2023-03-14T00:35:36;101.75;75.75;50.00
67714;PMS7003;54505;44.022;20.458;2023-03-14T00:38:01;122.50;98.00;58.25
67714;PMS7003;54505;44.022;20.458;2023-03-14T00:40:27;181.00;144.50;83.75
67714;PMS7003;54505;44.022;20.458;2023-03-14T00:42:53;210.00;169.50;93.75
67714;PMS7003;54505;44.022;20.458;2023-03-14T00:45:19;205.00;157.00;89.75
67714;PMS7003;54505;44.022;20.458;2023-03-14T00:47:45;194.00;164.75;95.75
67714;PMS7003;54505;44.022;20.458;2023-03-14T00:50:11;185.00;153.50;87.75
67714;PMS7003;54505;44.022;20.458;2023-03-14T00:52:36;164.50;133.25;76.25
67714;PMS7003;54505;44.022;20.458;2023-03-14T00:55:02;93.50;71.00;44.75
67714;PMS7003;54505;44.022;20.458;2023-03-14T00:57:28;86.00;65.00;41.25
67714;PMS7003;54505;44.022;20.458;2023-03-14T00:59:53;93.75;65.75;41.75
67714;PMS7003;54505;44.022;20.458;2023-03-14T01:02:19;89.00;68.00;41.00
67714;PMS7003;54505;44.022;20.458;2023-03-14T01:04:46;88.00;66.50;43.75
67714;PMS7003;54505;44.022;20.458;2023-03-14T01:07:12;77.50;61.25;38.25
67714;PMS7003;54505;44.022;20.458;2023-03-14T01:09:38;89.50;64.25;41.50
67714;PMS7003;54505;44.022;20.458;2023-03-14T01:12:03;77.25;61.50;41.00
67714;PMS7003;54505;44.022;20.458;2023-03-14T01:14:29;79.75;62.25;41.00
67714;PMS7003;54505;44.022;20.458;2023-03-14T01:16:55;81.50;62.75;39.50
67714;PMS7003;54505;44.022;20.458;2023-03-14T01:19:26;73.25;61.25;40.25
67714;PMS7003;54505;44.022;20.458;2023-03-14T01:21:52;81.00;64.00;41.25
67714;PMS7003;54505;44.022;20.458;2023-03-14T01:24:18;83.00;63.75;40.50
67714;PMS7003;54505;44.022;20.458;2023-03-14T01:26:44;86.75;69.50;43.75
67714;PMS7003;54505;44.022;20.458;2023-03-14T01:29:09;97.25;73.75;46.50
67714;PMS7003;54505;44.022;20.458;2023-03-14T01:31:35;101.25;74.50;49.00
67714;PMS7003;54505;44.022;20.458;2023-03-14T01:34:01;102.75;77.75;51.00
67714;PMS7003;54505;44.022;20.458;2023-03-14T01:36:26;100.00;79.25;48.75
67714;PMS7003;54505;44.022;20.458;2023-03-14T01:38:52;75.75;58.50;30.00
67714;PMS7003;54505;44.022;20.458;2023-03-14T01:41:19;101.50;77.50;48.25
67714;PMS7003;54505;44.022;20.458;2023-03-14T01:43:45;91.25;67.25;47.00
67714;PMS7003;54505;44.022;20.458;2023-03-14T01:51:19;104.75;79.25;49.25
67714;PMS7003;54505;44.022;20.458;2023-03-14T01:53:46;94.25;71.00;44.25
67714;PMS7003;54505;44.022;20.458;2023-03-14T01:56:13;78.00;61.25;40.25
67714;PMS7003;54505;44.022;20.458;2023-03-14T01:58:41;86.75;62.00;40.25
67714;PMS7003;54505;44.022;20.458;2023-03-14T02:01:09;80.50;62.00;38.00
67714;PMS7003;54505;44.022;20.458;2023-03-14T02:03:39;80.00;62.25;39.75
67714;PMS7003;54505;44.022;20.458;2023-03-14T02:06:09;85.75;64.50;41.75
67714;PMS7003;54505;44.022;20.458;2023-03-14T02:08:36;80.25;61.25;39.75
67714;PMS7003;54505;44.022;20.458;2023-03-14T02:11:03;86.50;66.00;40.00
67714;PMS7003;54505;44.022;20.458;2023-03-14T02:13:29;82.50;61.50;39.25
67714;PMS7003;54505;44.022;20.458;2023-03-14T02:15:54;85.50;66.00;42.25
67714;PMS7003;54505;44.022;20.458;2023-03-14T02:18:20;86.00;66.50;42.25
67714;PMS7003;54505;44.022;20.458;2023-03-14T02:26:15;80.50;58.50;39.50
67714;PMS7003;54505;44.022;20.458;2023-03-14T02:28:41;76.25;60.75;38.25
67714;PMS7003;54505;44.022;20.458;2023-03-14T02:31:07;81.00;61.25;40.00
67714;PMS7003;54505;44.022;20.458;2023-03-14T02:33:33;71.75;53.25;27.25
67714;PMS7003;54505;44.022;20.458;2023-03-14T02:36:07;92.50;72.25;46.25
67714;PMS7003;54505;44.022;20.458;2023-03-14T02:38:39;96.00;74.00;47.25
67714;PMS7003;54505;44.022;20.458;2023-03-14T02:41:06;117.75;91.75;59.00
67714;PMS7003;54505;44.022;20.458;2023-03-14T02:43:32;117.75;92.25;54.50
67714;PMS7003;54505;44.022;20.458;2023-03-14T02:45:57;100.00;73.50;46.75
67714;PMS7003;54505;44.022;20.458;2023-03-14T02:48:30;82.75;63.50;39.00
67714;PMS7003;54505;44.022;20.458;2023-03-14T02:50:59;79.00;60.25;39.00
67714;PMS7003;54505;44.022;20.458;2023-03-14T02:53:26;81.25;64.00;39.25
67714;PMS7003;54505;44.022;20.458;2023-03-14T02:55:52;79.75;62.00;39.50
67714;PMS7003;54505;44.022;20.458;2023-03-14T02:58:18;73.50;56.00;34.75
67714;PMS7003;54505;44.022;20.458;2023-03-14T03:00:48;83.00;61.50;39.00
67714;PMS7003;54505;44.022;20.458;2023-03-14T03:03:14;80.25;62.50;39.50
67714;PMS7003;54505;44.022;20.458;2023-03-14T03:05:40;80.75;60.50;39.75
67714;PMS7003;54505;44.022;20.458;2023-03-14T03:08:06;80.50;61.75;39.00
67714;PMS7003;54505;44.022;20.458;2023-03-14T03:10:32;82.00;63.25;42.00
67714;PMS7003;54505;44.022;20.458;2023-03-14T03:12:58;88.75;65.25;40.75
67714;PMS7003;54505;44.022;20.458;2023-03-14T03:15:24;90.50;67.75;43.00
67714;PMS7003;54505;44.022;20.458;2023-03-14T03:17:49;103.75;84.00;52.50
67714;PMS7003;54505;44.022;20.458;2023-03-14T03:20:15;106.75;87.25;53.75
67714;PMS7003;54505;44.022;20.458;2023-03-14T03:22:41;73.75;56.00;36.00
67714;PMS7003;54505;44.022;20.458;2023-03-14T03:25:07;79.75;62.75;41.50
67714;PMS7003;54505;44.022;20.458;2023-03-14T03:27:34;74.00;57.75;38.75
67714;PMS7003;54505;44.022;20.458;2023-03-14T03:30:00;71.75;54.00;34.75
67714;PMS7003;54505;44.022;20.458;2023-03-14T03:32:25;67.00;48.50;31.25
67714;PMS7003;54505;44.022;20.458;2023-03-14T03:34:51;66.75;49.75;32.00
67714;PMS7003;54505;44.022;20.458;2023-03-14T03:37:17;66.75;53.75;33.50
67714;PMS7003;54505;44.022;20.458;2023-03-14T03:39:43;64.75;53.75;35.00
67714;PMS7003;54505;44.022;20.458;2023-03-14T03:42:09;58.00;46.00;29.75
67714;PMS7003;54505;44.022;20.458;2023-03-14T03:44:35;72.00;56.00;35.25
67714;PMS7003;54505;44.022;20.458;2023-03-14T03:47:01;68.00;50.00;31.75
67714;PMS7003;54505;44.022;20.458;2023-03-14T03:49:30;62.50;49.00;32.00
67714;PMS7003;54505;44.022;20.458;2023-03-14T03:51:56;72.75;59.50;37.00
67714;PMS7003;54505;44.022;20.458;2023-03-14T03:54:22;71.00;53.25;33.75
67714;PMS7003;54505;44.022;20.458;2023-03-14T03:56:47;71.75;57.25;36.25
67714;PMS7003;54505;44.022;20.458;2023-03-14T03:59:13;76.25;58.75;37.75
67714;PMS7003;54505;44.022;20.458;2023-03-14T04:01:39;94.75;72.75;43.50
67714;PMS7003;54505;44.022;20.458;2023-03-14T04:04:05;64.75;53.75;36.00
67714;PMS7003;54505;44.022;20.458;2023-03-14T04:06:30;72.50;58.25;35.75
67714;PMS7003;54505;44.022;20.458;2023-03-14T04:08:56;87.00;67.00;41.50
67714;PMS7003;54505;44.022;20.458;2023-03-14T04:11:22;91.50;67.25;43.25
67714;PMS7003;54505;44.022;20.458;2023-03-14T04:13:48;78.75;61.00;39.00
67714;PMS7003;54505;44.022;20.458;2023-03-14T04:16:15;88.50;69.25;44.00
67714;PMS7003;54505;44.022;20.458;2023-03-14T04:18:42;104.00;75.25;47.75
67714;PMS7003;54505;44.022;20.458;2023-03-14T04:21:07;67.25;53.50;35.00
67714;PMS7003;54505;44.022;20.458;2023-03-14T04:23:33;69.00;55.00;36.75
67714;PMS7003;54505;44.022;20.458;2023-03-14T04:25:59;79.25;56.75;38.00
67714;PMS7003;54505;44.022;20.458;2023-03-14T04:28:24;77.75;61.00;38.75
67714;PMS7003;54505;44.022;20.458;2023-03-14T04:30:50;82.25;63.75;42.25
67714;PMS7003;54505;44.022;20.458;2023-03-14T04:33:16;82.75;61.75;40.25
67714;PMS7003;54505;44.022;20.458;2023-03-14T04:35:45;78.75;62.25;39.50
67714;PMS7003;54505;44.022;20.458;2023-03-14T04:38:12;80.75;62.00;39.25
67714;PMS7003;54505;44.022;20.458;2023-03-14T04:40:38;78.75;56.75;36.00
67714;PMS7003;54505;44.022;20.458;2023-03-14T04:43:04;80.50;60.25;38.00
67714;PMS7003;54505;44.022;20.458;2023-03-14T04:45:30;73.25;57.00;37.50
67714;PMS7003;54505;44.022;20.458;2023-03-14T04:47:56;78.25;60.00;38.75
67714;PMS7003;54505;44.022;20.458;2023-03-14T04:50:21;107.50;94.00;65.50
67714;PMS7003;54505;44.022;20.458;2023-03-14T04:52:47;86.25;65.75;43.00
67714;PMS7003;54505;44.022;20.458;2023-03-14T04:55:12;93.25;68.50;45.25
67714;PMS7003;54505;44.022;20.458;2023-03-14T04:57:38;86.00;66.00;44.75
67714;PMS7003;54505;44.022;20.458;2023-03-14T05:00:04;84.00;65.00;43.25
67714;PMS7003;54505;44.022;20.458;2023-03-14T05:02:33;93.25;69.50;44.50
67714;PMS7003;54505;44.022;20.458;2023-03-14T05:04:58;86.00;59.50;37.75
67714;PMS7003;54505;44.022;20.458;2023-03-14T05:07:24;86.00;66.75;43.75
67714;PMS7003;54505;44.022;20.458;2023-03-14T05:09:50;86.00;67.75;43.50
67714;PMS7003;54505;44.022;20.458;2023-03-14T05:12:16;82.25;64.50;42.50
67714;PMS7003;54505;44.022;20.458;2023-03-14T05:14:41;70.00;51.25;35.25
67714;PMS7003;54505;44.022;20.458;2023-03-14T05:17:07;68.75;51.00;32.25
67714;PMS7003;54505;44.022;20.458;2023-03-14T05:19:33;82.75;62.75;40.50
67714;PMS7003;54505;44.022;20.458;2023-03-14T05:21:58;78.00;56.75;36.75
67714;PMS7003;54505;44.022;20.458;2023-03-14T05:24:24;89.75;65.75;39.50
67714;PMS7003;54505;44.022;20.458;2023-03-14T05:26:50;97.50;73.50;45.75
67714;PMS7003;54505;44.022;20.458;2023-03-14T05:29:16;92.75;71.50;45.50
67714;PMS7003;54505;44.022;20.458;2023-03-14T05:31:41;76.00;60.75;38.50
67714;PMS7003;54505;44.022;20.458;2023-03-14T05:34:07;87.75;65.50;43.50
67714;PMS7003;54505;44.022;20.458;2023-03-14T05:36:33;68.50;54.00;37.50
67714;PMS7003;54505;44.022;20.458;2023-03-14T05:38:58;77.50;60.50;38.50
67714;PMS7003;54505;44.022;20.458;2023-03-14T05:41:24;83.75;62.00;39.25
67714;PMS7003;54505;44.022;20.458;2023-03-14T05:43:49;84.00;61.25;38.00
67714;PMS7003;54505;44.022;20.458;2023-03-14T05:46:15;84.00;65.00;41.25
67714;PMS7003;54505;44.022;20.458;2023-03-14T05:48:41;90.75;69.50;43.75
67714;PMS7003;54505;44.022;20.458;2023-03-14T05:51:06;90.50;71.00;45.50
67714;PMS7003;54505;44.022;20.458;2023-03-14T05:53:32;85.75;62.50;40.75
67714;PMS7003;54505;44.022;20.458;2023-03-14T05:55:58;82.50;63.50;41.25
67714;PMS7003;54505;44.022;20.458;2023-03-14T05:58:24;84.75;62.50;41.75
67714;PMS7003;54505;44.022;20.458;2023-03-14T06:00:50;85.00;62.25;39.00
67714;PMS7003;54505;44.022;20.458;2023-03-14T06:03:16;88.00;64.50;42.25
67714;PMS7003;54505;44.022;20.458;2023-03-14T06:05:41;88.25;68.00;43.75
67714;PMS7003;54505;44.022;20.458;2023-03-14T06:08:07;88.25;67.50;43.50
67714;PMS7003;54505;44.022;20.458;2023-03-14T06:10:34;101.50;85.00;57.00
67714;PMS7003;54505;44.022;20.458;2023-03-14T06:13:00;92.25;69.50;43.50
67714;PMS7003;54505;44.022;20.458;2023-03-14T06:15:25;92.75;65.75;41.25
67714;PMS7003;54505;44.022;20.458;2023-03-14T06:17:51;93.00;68.50;44.50
67714;PMS7003;54505;44.022;20.458;2023-03-14T06:20:19;83.50;66.25;41.50
67714;PMS7003;54505;44.022;20.458;2023-03-14T06:22:44;89.00;66.50;43.00
67714;PMS7003;54505;44.022;20.458;2023-03-14T06:25:10;90.25;68.25;44.75
67714;PMS7003;54505;44.022;20.458;2023-03-14T06:27:35;91.50;68.25;43.50
67714;PMS7003;54505;44.022;20.458;2023-03-14T06:30:01;95.00;76.25;47.50
67714;PMS7003;54505;44.022;20.458;2023-03-14T06:32:27;86.25;66.75;45.00
67714;PMS7003;54505;44.022;20.458;2023-03-14T06:34:52;86.75;67.50;45.25
67714;PMS7003;54505;44.022;20.458;2023-03-14T06:37:18;82.50;63.00;40.75
67714;PMS7003;54505;44.022;20.458;2023-03-14T06:39:44;79.75;59.00;39.00
67714;PMS7003;54505;44.022;20.458;2023-03-14T06:42:09;87.75;66.75;44.00
67714;PMS7003;54505;44.022;20.458;2023-03-14T06:44:36;84.75;66.25;40.25
67714;PMS7003;54505;44.022;20.458;2023-03-14T06:47:01;87.00;66.00;43.00
67714;PMS7003;54505;44.022;20.458;2023-03-14T06:49:27;86.50;67.50;44.25
67714;PMS7003;54505;44.022;20.458;2023-03-14T06:51:53;83.50;65.50;41.50
67714;PMS7003;54505;44.022;20.458;2023-03-14T06:54:19;85.75;65.00;43.75
67714;PMS7003;54505;44.022;20.458;2023-03-14T06:56:44;90.75;70.75;43.25
67714;PMS7003;54505;44.022;20.458;2023-03-14T06:59:10;93.25;76.00;46.75
67714;PMS7003;54505;44.022;20.458;2023-03-14T07:01:36;90.25;70.25;46.75
67714;PMS7003;54505;44.022;20.458;2023-03-14T07:04:02;95.75;78.75;50.50
67714;PMS7003;54505;44.022;20.458;2023-03-14T14:44:59;19.75;18.00;13.00
67714;PMS7003;54505;44.022;20.458;2023-03-14T14:47:26;24.75;19.25;13.75
67714;PMS7003;54505;44.022;20.458;2023-03-14T14:49:53;20.00;18.75;12.00
67714;PMS7003;54505;44.022;20.458;2023-03-14T14:52:40;18.00;16.25;11.00
67714;PMS7003;54505;44.022;20.458;2023-03-14T14:55:39;17.00;14.25;11.00
67714;PMS7003;54505;44.022;20.458;2023-03-14T14:58:09;18.75;17.25;11.00
67714;PMS7003;54505;44.022;20.458;2023-03-14T15:05:08;22.50;20.50;14.00
67714;PMS7003;54505;44.022;20.458;2023-03-14T15:07:37;27.00;25.50;18.00
67714;PMS7003;54505;44.022;20.458;2023-03-14T15:10:03;43.25;35.00;21.50
67714;PMS7003;54505;44.022;20.458;2023-03-14T15:12:28;22.50;19.25;13.75
67714;PMS7003;54505;44.022;20.458;2023-03-14T15:14:54;19.50;18.75;13.50
67714;PMS7003;54505;44.022;20.458;2023-03-14T15:17:22;26.75;23.50;18.50
67714;PMS7003;54505;44.022;20.458;2023-03-14T15:19:48;26.00;24.25;19.00
67714;PMS7003;54505;44.022;20.458;2023-03-14T15:22:14;44.50;36.00;24.25
67714;PMS7003;54505;44.022;20.458;2023-03-14T15:24:40;55.00;43.00;27.75
67714;PMS7003;54505;44.022;20.458;2023-03-14T15:27:09;50.00;42.00;27.00
67714;PMS7003;54505;44.022;20.458;2023-03-14T15:29:35;39.75;33.50;23.00
67714;PMS7003;54505;44.022;20.458;2023-03-14T15:32:02;39.00;32.00;21.75
67714;PMS7003;54505;44.022;20.458;2023-03-14T15:34:28;44.75;34.50;24.50
67714;PMS7003;54505;44.022;20.458;2023-03-14T15:36:54;33.00;28.00;19.00
67714;PMS7003;54505;44.022;20.458;2023-03-14T15:39:20;47.00;37.00;26.00
67714;PMS7003;54505;44.022;20.458;2023-03-14T15:42:10;61.50;47.75;31.75
67714;PMS7003;54505;44.022;20.458;2023-03-14T15:44:37;61.75;49.25;32.50
67714;PMS7003;54505;44.022;20.458;2023-03-14T15:47:02;62.25;46.75;30.00
67714;PMS7003;54505;44.022;20.458;2023-03-14T15:49:28;60.00;49.00;33.00
67714;PMS7003;54505;44.022;20.458;2023-03-14T15:51:54;47.75;37.75;25.00
67714;PMS7003;54505;44.022;20.458;2023-03-14T15:54:20;41.75;31.75;21.50
67714;PMS7003;54505;44.022;20.458;2023-03-14T15:56:45;36.50;31.25;21.25
67714;PMS7003;54505;44.022;20.458;2023-03-14T15:59:11;34.50;30.75;22.00
67714;PMS7003;54505;44.022;20.458;2023-03-14T16:01:36;40.00;33.00;22.25
67714;PMS7003;54505;44.022;20.458;2023-03-14T16:04:02;35.00;29.25;19.00
67714;PMS7003;54505;44.022;20.458;2023-03-14T16:06:28;32.75;27.25;17.25
67714;PMS7003;54505;44.022;20.458;2023-03-14T16:08:56;24.50;22.50;15.00
67714;PMS7003;54505;44.022;20.458;2023-03-14T16:11:22;31.75;27.75;19.25
67714;PMS7003;54505;44.022;20.458;2023-03-14T16:13:47;48.75;38.50;25.25
67714;PMS7003;54505;44.022;20.458;2023-03-14T16:16:13;42.00;32.75;20.25
67714;PMS7003;54505;44.022;20.458;2023-03-14T16:18:42;33.25;30.00;21.00
67714;PMS7003;54505;44.022;20.458;2023-03-14T16:21:10;35.00;30.25;20.00
67714;PMS7003;54505;44.022;20.458;2023-03-14T16:23:37;59.75;47.00;30.00
67714;PMS7003;54505;44.022;20.458;2023-03-14T16:26:07;49.50;39.50;26.25
67714;PMS7003;54505;44.022;20.458;2023-03-14T16:28:33;50.50;40.75;26.00
67714;PMS7003;54505;44.022;20.458;2023-03-14T16:30:59;51.50;39.00;24.75
67714;PMS7003;54505;44.022;20.458;2023-03-14T16:33:26;46.50;38.00;26.00
67714;PMS7003;54505;44.022;20.458;2023-03-14T16:35:55;35.25;29.00;20.00
67714;PMS7003;54505;44.022;20.458;2023-03-14T16:38:22;25.25;25.25;17.75
67714;PMS7003;54505;44.022;20.458;2023-03-14T16:40:54;25.25;21.00;15.00
67714;PMS7003;54505;44.022;20.458;2023-03-14T16:43:20;22.25;20.25;14.00
67714;PMS7003;54505;44.022;20.458;2023-03-14T16:45:46;18.50;17.00;11.75
67714;PMS7003;54505;44.022;20.458;2023-03-14T16:48:13;16.00;12.25;9.00
67714;PMS7003;54505;44.022;20.458;2023-03-14T16:50:39;42.50;32.50;23.00
67714;PMS7003;54505;44.022;20.458;2023-03-14T16:53:05;34.25;31.00;19.50
67714;PMS7003;54505;44.022;20.458;2023-03-14T16:55:30;41.00;33.25;21.75
67714;PMS7003;54505;44.022;20.458;2023-03-14T16:57:56;52.00;39.00;26.75
67714;PMS7003;54505;44.022;20.458;2023-03-14T17:00:22;32.50;29.75;21.00
67714;PMS7003;54505;44.022;20.458;2023-03-14T17:02:48;24.00;21.00;14.50
67714;PMS7003;54505;44.022;20.458;2023-03-14T17:05:13;23.00;19.00;14.50
67714;PMS7003;54505;44.022;20.458;2023-03-14T17:07:39;27.75;22.75;17.00
67714;PMS7003;54505;44.022;20.458;2023-03-14T17:10:04;36.75;31.25;19.75
67714;PMS7003;54505;44.022;20.458;2023-03-14T17:12:30;31.25;25.50;19.00
67714;PMS7003;54505;44.022;20.458;2023-03-14T17:14:57;47.25;36.00;26.25
67714;PMS7003;54505;44.022;20.458;2023-03-14T17:17:24;39.75;33.25;22.00
67714;PMS7003;54505;44.022;20.458;2023-03-14T17:19:49;66.50;51.00;32.25
67714;PMS7003;54505;44.022;20.458;2023-03-14T17:22:15;92.50;86.50;54.50
67714;PMS7003;54505;44.022;20.458;2023-03-14T17:24:40;67.25;52.25;34.25
67714;PMS7003;54505;44.022;20.458;2023-03-14T17:27:06;96.50;82.00;53.00
67714;PMS7003;54505;44.022;20.458;2023-03-14T17:29:32;55.00;44.00;30.00
67714;PMS7003;54505;44.022;20.458;2023-03-14T17:31:58;63.00;47.75;32.00
67714;PMS7003;54505;44.022;20.458;2023-03-14T17:34:23;65.00;49.00;32.00
67714;PMS7003;54505;44.022;20.458;2023-03-14T17:36:49;79.00;69.00;42.75
67714;PMS7003;54505;44.022;20.458;2023-03-14T17:39:15;79.75;68.50;41.00
67714;PMS7003;54505;44.022;20.458;2023-03-14T17:41:45;63.75;50.50;34.00
67714;PMS7003;54505;44.022;20.458;2023-03-14T17:44:10;83.50;70.50;43.50
67714;PMS7003;54505;44.022;20.458;2023-03-14T17:46:36;164.00;148.25;90.25
67714;PMS7003;54505;44.022;20.458;2023-03-14T17:49:02;107.50;96.75;61.25
67714;PMS7003;54505;44.022;20.458;2023-03-14T17:51:27;63.50;50.25;34.75
67714;PMS7003;54505;44.022;20.458;2023-03-14T17:53:53;76.50;64.25;40.00
67714;PMS7003;54505;44.022;20.458;2023-03-14T17:56:19;83.00;70.25;44.50
67714;PMS7003;54505;44.022;20.458;2023-03-14T17:58:44;90.50;75.50;49.25
67714;PMS7003;54505;44.022;20.458;2023-03-14T18:01:11;127.00;109.25;61.25
67714;PMS7003;54505;44.022;20.458;2023-03-14T18:03:38;136.25;111.75;65.75
67714;PMS7003;54505;44.022;20.458;2023-03-14T18:06:05;137.25;116.25;75.25
67714;PMS7003;54505;44.022;20.458;2023-03-14T18:08:30;149.25;132.50;79.50
67714;PMS7003;54505;44.022;20.458;2023-03-14T18:10:56;183.00;160.75;96.25
67714;PMS7003;54505;44.022;20.458;2023-03-14T18:13:22;153.50;133.50;84.25
67714;PMS7003;54505;44.022;20.458;2023-03-14T18:15:48;141.00;121.25;73.00
67714;PMS7003;54505;44.022;20.458;2023-03-14T18:18:13;160.00;142.25;88.25
67714;PMS7003;54505;44.022;20.458;2023-03-14T18:20:39;152.00;136.50;83.50
67714;PMS7003;54505;44.022;20.458;2023-03-14T18:23:04;216.50;191.50;115.75
67714;PMS7003;54505;44.022;20.458;2023-03-14T18:25:31;189.50;159.00;95.25
67714;PMS7003;54505;44.022;20.458;2023-03-14T18:27:57;225.50;200.75;113.75
67714;PMS7003;54505;44.022;20.458;2023-03-14T18:30:23;193.75;168.50;103.25
67714;PMS7003;54505;44.022;20.458;2023-03-14T18:32:48;181.25;158.00;102.75
67714;PMS7003;54505;44.022;20.458;2023-03-14T18:35:15;159.50;140.00;89.25
67714;PMS7003;54505;44.022;20.458;2023-03-14T18:37:41;187.00;158.00;93.75
67714;PMS7003;54505;44.022;20.458;2023-03-14T18:40:07;173.25;158.50;98.00
67714;PMS7003;54505;44.022;20.458;2023-03-14T18:42:34;190.00;168.50;104.25
67714;PMS7003;54505;44.022;20.458;2023-03-14T18:45:00;201.75;182.75;116.00
67714;PMS7003;54505;44.022;20.458;2023-03-14T18:47:26;233.00;194.75;120.00
67714;PMS7003;54505;44.022;20.458;2023-03-14T18:49:52;236.00;206.50;124.75
67714;PMS7003;54505;44.022;20.458;2023-03-14T18:52:17;232.25;204.75;124.25
67714;PMS7003;54505;44.022;20.458;2023-03-14T18:54:43;213.75;188.00;109.00
67714;PMS7003;54505;44.022;20.458;2023-03-14T18:57:08;181.00;158.00;94.25
67714;PMS7003;54505;44.022;20.458;2023-03-14T18:59:34;150.00;140.75;88.25
67714;PMS7003;54505;44.022;20.458;2023-03-14T19:02:00;171.25;141.25;84.00
67714;PMS7003;54505;44.022;20.458;2023-03-14T19:04:25;155.00;138.75;83.75
67714;PMS7003;54505;44.022;20.458;2023-03-14T19:06:51;177.25;148.00;88.00
67714;PMS7003;54505;44.022;20.458;2023-03-14T19:09:18;205.50;175.75;104.25
67714;PMS7003;54505;44.022;20.458;2023-03-14T19:11:44;168.25;146.00;88.00
67714;PMS7003;54505;44.022;20.458;2023-03-14T19:14:13;165.75;148.50;93.25
67714;PMS7003;54505;44.022;20.458;2023-03-14T19:16:41;169.50;150.25;91.50
67714;PMS7003;54505;44.022;20.458;2023-03-14T19:19:07;142.25;122.75;85.00
67714;PMS7003;54505;44.022;20.458;2023-03-14T19:21:33;160.25;140.75;88.25
67714;PMS7003;54505;44.022;20.458;2023-03-14T19:24:00;132.00;113.50;76.50
67714;PMS7003;54505;44.022;20.458;2023-03-14T19:26:25;141.75;119.75;73.75
67714;PMS7003;54505;44.022;20.458;2023-03-14T19:28:54;133.00;116.50;73.75
67714;PMS7003;54505;44.022;20.458;2023-03-14T19:31:19;142.25;125.75;78.50
67714;PMS7003;54505;44.022;20.458;2023-03-14T19:33:45;213.75;185.50;113.50
67714;PMS7003;54505;44.022;20.458;2023-03-14T19:36:31;192.00;167.50;96.75
67714;PMS7003;54505;44.022;20.458;2023-03-14T19:38:58;227.25;190.75;118.00
67714;PMS7003;54505;44.022;20.458;2023-03-14T19:41:24;230.50;195.75;119.25
67714;PMS7003;54505;44.022;20.458;2023-03-14T19:43:51;215.00;182.75;110.25
67714;PMS7003;54505;44.022;20.458;2023-03-14T19:46:16;168.00;153.75;94.50
67714;PMS7003;54505;44.022;20.458;2023-03-14T19:48:42;159.50;136.50;83.50
67714;PMS7003;54505;44.022;20.458;2023-03-14T19:51:10;131.50;115.50;74.25
67714;PMS7003;54505;44.022;20.458;2023-03-14T19:53:36;124.25;108.00;74.25
67714;PMS7003;54505;44.022;20.458;2023-03-14T19:56:01;137.75;118.75;72.25
67714;PMS7003;54505;44.022;20.458;2023-03-14T19:58:27;126.75;113.00;70.25
67714;PMS7003;54505;44.022;20.458;2023-03-14T20:00:54;155.25;140.25;81.25
67714;PMS7003;54505;44.022;20.458;2023-03-14T20:03:20;178.00;154.50;89.00
67714;PMS7003;54505;44.022;20.458;2023-03-14T20:05:50;224.00;189.50;112.00
67714;PMS7003;54505;44.022;20.458;2023-03-14T20:08:18;221.50;187.75;107.75
67714;PMS7003;54505;44.022;20.458;2023-03-14T20:10:44;225.50;192.50;114.25
67714;PMS7003;54505;44.022;20.458;2023-03-14T20:13:10;200.75;167.00;99.00
67714;PMS7003;54505;44.022;20.458;2023-03-14T20:15:36;271.50;231.00;140.00
67714;PMS7003;54505;44.022;20.458;2023-03-14T20:18:01;150.25;137.50;85.50
67714;PMS7003;54505;44.022;20.458;2023-03-14T20:20:28;165.50;141.00;84.50
67714;PMS7003;54505;44.022;20.458;2023-03-14T20:22:53;158.75;133.50;80.25
67714;PMS7003;54505;44.022;20.458;2023-03-14T20:25:19;147.50;135.75;83.50
67714;PMS7003;54505;44.022;20.458;2023-03-14T20:27:47;140.25;123.25;74.50
67714;PMS7003;54505;44.022;20.458;2023-03-14T20:30:13;160.00;143.00;84.25
67714;PMS7003;54505;44.022;20.458;2023-03-14T20:32:39;124.75;112.50;69.00
67714;PMS7003;54505;44.022;20.458;2023-03-14T20:35:06;227.25;194.25;107.75
67714;PMS7003;54505;44.022;20.458;2023-03-14T20:37:32;283.25;235.25;130.75
67714;PMS7003;54505;44.022;20.458;2023-03-14T20:39:58;89.25;76.75;52.75
67714;PMS7003;54505;44.022;20.458;2023-03-14T20:42:24;104.75;83.75;55.75
67714;PMS7003;54505;44.022;20.458;2023-03-14T20:44:51;88.25;75.50;49.00
67714;PMS7003;54505;44.022;20.458;2023-03-14T20:47:18;94.25;80.00;48.75
67714;PMS7003;54505;44.022;20.458;2023-03-14T20:49:43;91.50;73.75;47.25
67714;PMS7003;54505;44.022;20.458;2023-03-14T20:52:09;92.50;84.00;52.50
67714;PMS7003;54505;44.022;20.458;2023-03-14T20:54:37;112.00;98.75;62.00
67714;PMS7003;54505;44.022;20.458;2023-03-14T20:57:03;146.00;125.50;72.25
67714;PMS7003;54505;44.022;20.458;2023-03-14T20:59:28;164.25;138.00;81.50
67714;PMS7003;54505;44.022;20.458;2023-03-14T21:01:54;191.00;160.50;100.00
67714;PMS7003;54505;44.022;20.458;2023-03-14T21:04:22;201.75;170.75;103.75
67714;PMS7003;54505;44.022;20.458;2023-03-14T21:06:52;202.25;175.50;108.00
67714;PMS7003;54505;44.022;20.458;2023-03-14T21:09:21;200.00;167.50;102.50
67714;PMS7003;54505;44.022;20.458;2023-03-14T21:11:47;205.50;178.75;105.50
67714;PMS7003;54505;44.022;20.458;2023-03-14T21:14:13;255.25;215.75;124.75
67714;PMS7003;54505;44.022;20.458;2023-03-14T21:16:39;281.50;237.25;131.75
67714;PMS7003;54505;44.022;20.458;2023-03-14T21:19:06;267.75;233.00;142.50